Time;durP1;ratioP1;P1;durP2;ratioP2;P2;SDS_P1;SDS_P2;PMS_P1;PMS_P2;Temp;Humidity;BMP_temperature;BMP_pressure;BME280_temperature;BME280_humidity;BME280_pressure;Samples;Min_cycle;Max_cycle;Signal;HPM_P1;HPM_P2
2023/08/29 00:00:42;;;;;;;2.65;2.30;;;19.70;99.90;;;;;;4995004;28;20054;-72
2023/08/29 00:03:07;;;;;;;3.15;2.95;;;19.70;99.90;;;;;;4995099;28;20030;-72
2023/08/29 00:05:33;;;;;;;4.57;3.47;;;19.70;99.90;;;;;;4995131;28;20023;-72
2023/08/29 00:07:58;;;;;;;3.53;3.22;;;19.70;99.90;;;;;;4994625;28;20041;-72
2023/08/29 00:10:24;;;;;;;4.55;3.85;;;19.60;99.90;;;;;;4994522;28;20038;-72
2023/08/29 00:12:51;;;;;;;5.30;4.07;;;19.60;99.90;;;;;;4994166;28;20546;-72
2023/08/29 00:15:16;;;;;;;4.53;3.47;;;19.60;99.90;;;;;;4994749;28;20022;-72
2023/08/29 00:17:43;;;;;;;3.80;3.28;;;19.60;99.90;;;;;;4992992;28;20097;-72
2023/08/29 00:20:10;;;;;;;4.30;3.90;;;19.60;99.90;;;;;;4994590;28;20026;-72
2023/08/29 00:22:36;;;;;;;6.22;4.22;;;19.60;99.90;;;;;;4994309;28;20109;-72
2023/08/29 00:25:01;;;;;;;4.82;4.18;;;19.60;99.90;;;;;;4994481;28;20441;-72
2023/08/29 00:27:27;;;;;;;4.57;4.15;;;19.50;99.90;;;;;;4993367;28;20029;-72
2023/08/29 00:29:53;;;;;;;4.28;3.72;;;19.50;99.90;;;;;;4994362;28;20034;-72
2023/08/29 00:32:18;;;;;;;4.30;3.90;;;19.50;99.90;;;;;;4994380;28;20383;-72
2023/08/29 00:34:44;;;;;;;5.25;4.72;;;19.50;99.90;;;;;;4994440;28;20069;-72
2023/08/29 00:37:09;;;;;;;5.10;4.60;;;19.50;99.90;;;;;;4994009;28;20025;-72
2023/08/29 00:39:35;;;;;;;6.20;5.00;;;19.40;99.90;;;;;;4994418;28;20498;-72
2023/08/29 00:42:01;;;;;;;4.68;4.25;;;19.40;99.90;;;;;;4994264;28;20022;-72
2023/08/29 00:44:27;;;;;;;6.68;4.53;;;19.40;99.90;;;;;;4994072;28;20124;-72
2023/08/29 00:46:53;;;;;;;5.03;4.63;;;19.40;99.90;;;;;;4994154;28;20077;-71
2023/08/29 00:49:26;;;;;;;5.45;4.95;;;19.40;99.90;;;;;;4994089;28;20042;-72
2023/08/29 00:51:52;;;;;;;6.00;4.45;;;19.40;99.90;;;;;;4993869;28;20018;-72
2023/08/29 00:54:19;;;;;;;4.78;4.40;;;19.40;99.90;;;;;;4994032;28;20045;-72
2023/08/29 00:56:46;;;;;;;5.85;4.63;;;19.40;99.90;;;;;;4994002;28;20026;-72
2023/08/29 00:59:13;;;;;;;4.68;4.28;;;19.30;99.90;;;;;;4993965;28;20026;-72
2023/08/29 01:01:39;;;;;;;6.35;4.40;;;19.30;99.90;;;;;;4994026;28;20206;-72
2023/08/29 01:04:05;;;;;;;4.85;4.10;;;19.30;99.90;;;;;;4993916;28;20033;-72
2023/08/29 01:06:32;;;;;;;5.43;4.28;;;19.30;99.90;;;;;;4993535;28;20050;-72
2023/08/29 01:08:59;;;;;;;6.03;4.57;;;19.20;99.90;;;;;;4993679;28;20037;-72
2023/08/29 01:11:46;;;;;;;7.65;4.47;;;19.30;99.90;;;;;;4993838;28;20018;-72
2023/08/29 01:14:26;;;;;;;4.65;4.25;;;19.20;99.90;;;;;;4993886;28;20031;-72
2023/08/29 01:17:27;;;;;;;5.68;4.60;;;19.20;99.90;;;;;;4993665;28;20029;-72
2023/08/29 01:19:54;;;;;;;4.63;4.20;;;19.20;99.90;;;;;;4971814;28;20047;-72
2023/08/29 01:22:40;;;;;;;6.10;4.20;;;19.20;99.90;;;;;;4989181;28;20100;-72
2023/08/29 01:25:31;;;;;;;4.72;4.32;;;19.20;99.90;;;;;;4993572;28;20030;-72
2023/08/29 01:27:57;;;;;;;5.90;4.88;;;19.20;99.90;;;;;;4993516;28;20042;-71
2023/08/29 01:30:23;;;;;;;5.15;4.70;;;19.10;99.90;;;;;;4993631;28;20066;-72
2023/08/29 01:32:50;;;;;;;6.45;4.53;;;19.10;99.90;;;;;;4993749;28;20030;-72
2023/08/29 01:35:15;;;;;;;4.53;4.13;;;19.10;99.90;;;;;;4993188;28;20045;-71
2023/08/29 01:37:41;;;;;;;4.60;4.07;;;19.10;99.90;;;;;;4993730;28;20464;-71
2023/08/29 01:40:07;;;;;;;4.45;4.05;;;19.00;99.90;;;;;;4993432;28;20097;-72
2023/08/29 01:42:33;;;;;;;4.57;4.00;;;19.00;99.90;;;;;;4993600;28;20015;-72
2023/08/29 01:44:59;;;;;;;6.40;4.20;;;19.00;99.90;;;;;;4993592;28;20023;-72
2023/08/29 01:47:24;;;;;;;4.85;4.35;;;18.90;99.90;;;;;;4993496;28;20038;-72
2023/08/29 01:49:51;;;;;;;7.00;4.45;;;19.00;99.90;;;;;;4993199;28;20038;-72
2023/08/29 01:52:17;;;;;;;5.72;4.70;;;18.90;99.90;;;;;;4993459;28;20097;-72
2023/08/29 01:54:43;;;;;;;4.93;4.53;;;18.90;99.90;;;;;;4993712;28;20015;-72
2023/08/29 01:57:10;;;;;;;4.82;4.38;;;18.90;99.90;;;;;;4993332;28;20021;-72
2023/08/29 01:59:37;;;;;;;4.88;4.40;;;18.90;99.90;;;;;;4993415;28;20023;-72
2023/08/29 02:02:03;;;;;;;5.10;4.30;;;18.90;99.90;;;;;;4993392;28;20487;-72
2023/08/29 02:04:29;;;;;;;5.07;4.65;;;18.90;99.90;;;;;;4993097;28;20030;-72
2023/08/29 02:06:54;;;;;;;4.65;4.22;;;18.90;99.90;;;;;;4993349;28;20026;-72
2023/08/29 02:09:20;;;;;;;4.93;4.53;;;18.90;99.90;;;;;;4993322;28;20104;-72
2023/08/29 02:11:46;;;;;;;5.35;4.85;;;18.80;99.90;;;;;;4993349;28;20383;-72
2023/08/29 02:14:12;;;;;;;7.07;5.22;;;18.80;99.90;;;;;;4993436;28;20026;-72
2023/08/29 02:16:38;;;;;;;5.05;4.65;;;18.70;99.90;;;;;;4993070;28;20109;-72
2023/08/29 02:19:04;;;;;;;7.93;5.13;;;18.70;99.90;;;;;;4992926;28;20027;-72
2023/08/29 02:21:30;;;;;;;5.38;4.90;;;18.70;99.90;;;;;;4991759;28;20059;-72
2023/08/29 02:23:57;;;;;;;6.03;5.35;;;18.80;99.90;;;;;;4993320;28;20495;-72
2023/08/29 02:26:22;;;;;;;5.65;5.22;;;18.70;99.90;;;;;;4993091;28;20101;-71
2023/08/29 02:28:52;;;;;;;6.10;5.50;;;18.70;99.90;;;;;;4993334;28;20529;-72
2023/08/29 02:31:17;;;;;;;7.13;5.70;;;18.70;99.90;;;;;;4991684;28;20445;-72
2023/08/29 02:33:43;;;;;;;6.15;5.55;;;18.60;99.90;;;;;;4992970;28;20498;-72
2023/08/29 02:36:08;;;;;;;6.55;5.40;;;18.60;99.90;;;;;;4995744;28;20034;-72
2023/08/29 02:38:35;;;;;;;6.38;5.78;;;18.60;99.90;;;;;;4996794;28;20426;-72
2023/08/29 02:41:00;;;;;;;6.20;5.70;;;18.60;99.90;;;;;;4996622;28;20029;-72
2023/08/29 02:43:29;;;;;;;5.93;5.38;;;18.60;99.90;;;;;;4996405;28;20027;-72
2023/08/29 02:45:55;;;;;;;6.43;5.82;;;18.60;99.90;;;;;;4996443;28;20080;-72
2023/08/29 02:48:20;;;;;;;9.13;6.03;;;18.60;99.90;;;;;;4995980;28;20026;-71
2023/08/29 02:50:49;;;;;;;6.68;6.07;;;18.50;99.90;;;;;;4996272;28;20046;-72
2023/08/29 02:53:19;;;;;;;8.07;7.38;;;18.60;99.90;;;;;;4996297;28;20026;-71
2023/08/29 02:55:45;;;;;;;7.50;6.72;;;18.50;99.90;;;;;;4996392;28;20030;-71
2023/08/29 02:58:11;;;;;;;8.35;7.50;;;18.50;99.90;;;;;;4996185;28;20069;-72
2023/08/29 03:00:36;;;;;;;8.05;6.68;;;18.60;99.90;;;;;;4995783;28;20026;-72
2023/08/29 03:03:05;;;;;;;8.27;7.57;;;18.50;99.90;;;;;;4996118;28;20041;-72
2023/08/29 03:05:31;;;;;;;8.48;7.70;;;18.50;99.90;;;;;;4994883;28;20026;-72
2023/08/29 03:07:58;;;;;;;8.07;7.30;;;18.50;99.90;;;;;;4995925;28;20027;-71
2023/08/29 03:10:24;;;;;;;6.88;6.28;;;18.50;99.90;;;;;;4995820;28;20081;-72
2023/08/29 03:12:52;;;;;;;7.85;7.22;;;18.50;99.90;;;;;;4995888;28;20031;-72
2023/08/29 03:15:18;;;;;;;8.57;7.63;;;18.50;99.90;;;;;;4995603;28;20085;-72
2023/08/29 03:17:44;;;;;;;8.85;8.15;;;18.50;99.90;;;;;;4995815;28;20038;-72
2023/08/29 03:20:10;;;;;;;8.38;7.68;;;18.50;99.90;;;;;;4995892;28;20061;-72
2023/08/29 03:22:36;;;;;;;8.60;7.78;;;18.50;99.90;;;;;;4995610;28;20029;-72
2023/08/29 03:25:02;;;;;;;9.40;8.35;;;18.50;99.90;;;;;;4994609;28;20419;-72
2023/08/29 03:27:28;;;;;;;9.95;7.78;;;18.50;99.90;;;;;;4988855;28;20027;-72
2023/08/29 03:29:54;;;;;;;9.45;8.00;;;18.50;99.90;;;;;;4994353;28;20418;-72
2023/08/29 03:32:20;;;;;;;8.65;7.80;;;18.50;99.90;;;;;;4993283;28;20032;-72
2023/08/29 03:34:45;;;;;;;9.40;8.55;;;18.50;99.90;;;;;;4993866;28;20030;-72
2023/08/29 03:37:11;;;;;;;9.80;8.90;;;18.50;99.90;;;;;;4995272;28;20027;-72
2023/08/29 03:39:37;;;;;;;9.40;8.38;;;18.40;99.90;;;;;;4995310;28;20025;-72
2023/08/29 03:42:03;;;;;;;9.13;8.30;;;18.50;99.90;;;;;;4995616;28;20525;-72
2023/08/29 03:44:28;;;;;;;9.20;8.25;;;18.40;99.90;;;;;;4994933;28;20038;-72
2023/08/29 03:46:54;;;;;;;8.73;7.90;;;18.40;99.90;;;;;;4994995;28;20019;-71
2023/08/29 03:49:19;;;;;;;10.05;9.02;;;18.40;99.90;;;;;;4995049;28;20043;-72
2023/08/29 03:51:45;;;;;;;8.93;8.13;;;18.40;99.90;;;;;;4995270;28;20021;-72
2023/08/29 03:54:10;;;;;;;12.32;9.20;;;18.40;99.90;;;;;;4995087;28;20368;-71
2023/08/29 03:56:36;;;;;;;10.38;9.30;;;18.40;99.90;;;;;;4995000;28;20089;-72
2023/08/29 03:59:04;;;;;;;10.27;9.48;;;18.40;99.90;;;;;;4994871;28;20113;-72
2023/08/29 04:01:29;;;;;;;11.15;10.05;;;18.40;99.90;;;;;;4995143;28;20037;-72
2023/08/29 04:03:55;;;;;;;10.82;9.88;;;18.40;99.90;;;;;;4995125;28;20375;-72
2023/08/29 04:06:20;;;;;;;11.32;10.13;;;18.40;99.90;;;;;;4994945;28;20031;-72
2023/08/29 04:08:46;;;;;;;12.88;11.18;;;18.40;99.90;;;;;;4994823;28;20022;-72
2023/08/29 04:11:12;;;;;;;13.30;11.20;;;18.30;99.90;;;;;;4994874;28;20023;-72
2023/08/29 04:13:38;;;;;;;11.75;10.65;;;18.40;99.90;;;;;;4994316;28;20030;-72
2023/08/29 04:16:04;;;;;;;11.77;10.77;;;18.30;99.90;;;;;;4994809;28;20053;-72
2023/08/29 04:18:32;;;;;;;11.48;10.38;;;18.40;99.90;;;;;;4994547;28;20104;-71
2023/08/29 04:20:59;;;;;;;11.18;10.10;;;18.40;99.90;;;;;;4994809;28;20542;-72
2023/08/29 04:23:25;;;;;;;11.77;10.45;;;18.30;99.90;;;;;;4994588;28;20029;-71
2023/08/29 04:25:58;;;;;;;11.70;10.50;;;18.30;99.90;;;;;;4993168;28;20022;-71
2023/08/29 04:28:23;;;;;;;12.15;11.05;;;18.40;99.90;;;;;;4994250;28;20022;-72
2023/08/29 04:30:49;;;;;;;12.50;11.15;;;18.30;99.90;;;;;;4994402;28;20084;-72
2023/08/29 04:33:14;;;;;;;11.70;10.60;;;18.30;99.90;;;;;;4993295;28;20057;-71
2023/08/29 04:35:40;;;;;;;12.07;11.02;;;18.30;99.90;;;;;;4994214;28;20514;-72
2023/08/29 04:38:05;;;;;;;12.20;10.85;;;18.30;99.90;;;;;;4993203;28;20496;-72
2023/08/29 04:40:31;;;;;;;12.85;11.55;;;18.30;99.90;;;;;;4994192;28;20029;-72
2023/08/29 04:42:57;;;;;;;13.32;11.95;;;18.30;99.90;;;;;;4994191;28;20161;-72
2023/08/29 04:45:23;;;;;;;12.50;11.20;;;18.30;99.90;;;;;;4994235;28;20030;-72
2023/08/29 04:47:49;;;;;;;12.48;11.43;;;18.30;99.90;;;;;;4994315;28;20072;-72
2023/08/29 04:50:15;;;;;;;16.10;11.75;;;18.20;99.90;;;;;;4994064;28;20050;-72
2023/08/29 04:52:40;;;;;;;15.93;11.77;;;18.30;99.90;;;;;;4994097;28;20629;-72
2023/08/29 04:55:06;;;;;;;13.32;12.07;;;18.30;99.90;;;;;;4993934;28;20092;-71
2023/08/29 04:57:35;;;;;;;15.90;13.45;;;18.30;99.90;;;;;;4993088;28;20494;-72
2023/08/29 05:00:00;;;;;;;15.15;13.52;;;18.20;99.90;;;;;;4993962;28;20484;-72
2023/08/29 05:02:26;;;;;;;17.63;13.75;;;18.20;99.90;;;;;;4993589;28;20025;-72
2023/08/29 05:04:52;;;;;;;14.60;13.13;;;18.20;99.90;;;;;;4993835;28;20030;-71
2023/08/29 05:07:18;;;;;;;13.93;12.68;;;18.30;99.90;;;;;;4992978;28;20027;-72
2023/08/29 05:09:44;;;;;;;14.32;12.82;;;18.30;99.90;;;;;;4993713;28;20038;-72
2023/08/29 05:12:10;;;;;;;14.57;12.48;;;18.30;99.90;;;;;;4993521;28;20034;-72
2023/08/29 05:14:39;;;;;;;13.82;12.27;;;18.30;99.90;;;;;;4993594;28;20440;-72
2023/08/29 05:17:05;;;;;;;14.40;12.90;;;18.30;99.90;;;;;;4993930;28;20037;-71
2023/08/29 05:19:31;;;;;;;16.50;13.45;;;18.30;99.90;;;;;;4976530;28;20041;-72
2023/08/29 05:21:57;;;;;;;13.93;12.68;;;18.30;99.90;;;;;;4957182;28;20153;-71
2023/08/29 05:24:22;;;;;;;14.40;13.10;;;18.30;99.90;;;;;;4974323;28;20385;-72
2023/08/29 05:26:49;;;;;;;14.10;12.90;;;18.30;99.90;;;;;;4956537;28;20691;-71
2023/08/29 05:29:14;;;;;;;14.73;13.13;;;18.30;99.90;;;;;;4974492;28;20039;-71
2023/08/29 05:31:40;;;;;;;14.57;13.23;;;18.20;99.90;;;;;;4972307;28;20019;-72
2023/08/29 05:34:06;;;;;;;15.32;13.73;;;18.30;99.90;;;;;;4970590;28;20110;-72
2023/08/29 05:36:31;;;;;;;14.98;13.48;;;18.30;99.90;;;;;;4972590;28;20027;-72
2023/08/29 05:38:57;;;;;;;16.13;14.10;;;18.30;99.90;;;;;;4974051;28;20027;-72
2023/08/29 05:41:23;;;;;;;16.58;13.77;;;18.30;99.90;;;;;;4973831;28;20027;-72
2023/08/29 05:43:49;;;;;;;15.13;13.60;;;18.30;99.90;;;;;;4973291;28;20069;-72
2023/08/29 05:46:15;;;;;;;14.75;13.25;;;18.30;99.90;;;;;;4973872;28;20139;-72
2023/08/29 05:48:41;;;;;;;14.95;13.50;;;18.30;99.90;;;;;;4953987;28;20033;-72
2023/08/29 05:51:07;;;;;;;14.73;13.25;;;18.30;99.90;;;;;;4972710;28;20031;-72
2023/08/29 05:53:33;;;;;;;14.20;12.80;;;18.30;99.90;;;;;;4968834;28;20023;-71
2023/08/29 05:55:58;;;;;;;18.67;15.60;;;18.30;99.90;;;;;;4971886;28;20077;-72
2023/08/29 05:58:25;;;;;;;16.85;15.18;;;18.30;99.90;;;;;;4971202;28;20480;-72
2023/08/29 06:00:51;;;;;;;16.55;14.82;;;18.30;99.90;;;;;;4970668;28;20018;-72
2023/08/29 06:03:17;;;;;;;17.67;14.85;;;18.30;99.90;;;;;;4973617;28;20110;-72
2023/08/29 06:05:43;;;;;;;17.92;16.30;;;18.30;99.90;;;;;;4973784;28;20055;-72
2023/08/29 06:08:09;;;;;;;18.17;16.27;;;18.30;99.90;;;;;;4974071;28;20027;-72
2023/08/29 06:10:34;;;;;;;16.98;15.27;;;18.30;99.90;;;;;;4975530;28;20407;-72
2023/08/29 06:13:00;;;;;;;17.40;15.57;;;18.30;99.90;;;;;;4975683;28;21836;-73
2023/08/29 06:15:26;;;;;;;21.08;16.70;;;18.30;99.90;;;;;;4982640;28;20518;-72
2023/08/29 06:17:53;;;;;;;24.70;18.10;;;18.30;99.90;;;;;;4979199;28;20027;-72
2023/08/29 06:20:19;;;;;;;21.95;17.42;;;18.30;99.90;;;;;;4982101;28;20034;-71
2023/08/29 06:22:45;;;;;;;22.30;16.38;;;18.40;99.90;;;;;;4988666;28;20057;-73
2023/08/29 06:25:10;;;;;;;29.23;18.83;;;18.40;99.90;;;;;;4966664;28;20480;-73
2023/08/29 06:27:37;;;;;;;22.70;17.63;;;18.40;99.90;;;;;;4987992;28;20018;-72
2023/08/29 06:30:04;;;;;;;19.77;17.25;;;18.40;99.90;;;;;;4976935;28;20050;-72
2023/08/29 06:32:30;;;;;;;20.05;17.88;;;18.40;99.90;;;;;;4978068;28;20026;-71
2023/08/29 06:34:56;;;;;;;19.35;16.80;;;18.40;99.90;;;;;;4996056;28;20472;-73
2023/08/29 06:37:21;;;;;;;18.83;16.90;;;18.40;99.90;;;;;;4976639;28;20027;-72
2023/08/29 06:39:47;;;;;;;19.13;17.27;;;18.40;99.90;;;;;;4973449;28;20027;-73
2023/08/29 06:42:13;;;;;;;19.70;16.27;;;18.40;99.90;;;;;;4962057;28;20018;-73
2023/08/29 06:44:38;;;;;;;12.20;10.93;;;18.40;99.90;;;;;;4978673;28;20506;-72
2023/08/29 06:47:04;;;;;;;14.13;12.07;;;18.40;99.90;;;;;;4977246;28;20108;-72
2023/08/29 06:49:30;;;;;;;12.57;11.23;;;18.50;99.90;;;;;;4965942;28;20072;-71
2023/08/29 06:51:56;;;;;;;16.55;14.82;;;18.50;99.90;;;;;;4986087;28;20082;-72
2023/08/29 06:54:22;;;;;;;18.95;16.73;;;18.60;99.90;;;;;;4973912;28;20027;-72
2023/08/29 06:56:49;;;;;;;19.60;17.38;;;18.60;99.90;;;;;;4975202;28;20038;-73
2023/08/29 06:59:15;;;;;;;19.23;17.33;;;18.60;99.90;;;;;;4975908;28;20034;-73
2023/08/29 07:01:40;;;;;;;18.13;16.27;;;18.60;99.90;;;;;;4975486;28;20030;-73
2023/08/29 07:04:07;;;;;;;19.58;17.00;;;18.60;99.90;;;;;;4973038;28;20456;-74
2023/08/29 07:06:32;;;;;;;18.10;16.27;;;18.60;99.90;;;;;;4973256;28;20041;-74
2023/08/29 07:08:58;;;;;;;18.88;15.45;;;18.60;99.90;;;;;;4969536;28;20027;-71
2023/08/29 07:11:23;;;;;;;17.77;15.88;;;18.60;99.90;;;;;;4974155;28;20514;-72
2023/08/29 07:13:49;;;;;;;17.63;15.00;;;18.70;99.90;;;;;;4975878;28;20030;-72
2023/08/29 07:16:15;;;;;;;16.63;14.75;;;18.70;99.90;;;;;;4974161;28;20062;-72
2023/08/29 07:18:40;;;;;;;16.80;15.00;;;18.70;99.90;;;;;;4973178;28;20034;-72
2023/08/29 07:21:07;;;;;;;17.52;15.13;;;18.70;99.90;;;;;;4971120;28;20077;-73
2023/08/29 07:23:33;;;;;;;16.08;13.77;;;18.70;99.90;;;;;;4973308;28;20023;-71
2023/08/29 07:25:59;;;;;;;16.15;14.38;;;18.70;99.90;;;;;;4967037;28;20041;-73
2023/08/29 07:28:25;;;;;;;20.13;14.60;;;18.80;99.90;;;;;;4970771;28;20026;-73
2023/08/29 07:30:51;;;;;;;16.63;14.32;;;18.80;99.90;;;;;;4971939;28;20042;-72
2023/08/29 07:33:17;;;;;;;15.63;13.80;;;18.80;99.90;;;;;;4971941;28;20404;-72
2023/08/29 07:35:45;;;;;;;14.50;13.05;;;18.90;99.90;;;;;;4971262;28;20046;-73
2023/08/29 07:38:12;;;;;;;14.88;12.13;;;18.80;99.90;;;;;;4973645;28;20076;-72
2023/08/29 07:40:38;;;;;;;14.38;12.20;;;18.90;99.90;;;;;;4974310;28;20514;-73
2023/08/29 07:43:07;;;;;;;15.02;12.77;;;18.80;99.90;;;;;;4972904;28;20019;-72
2023/08/29 07:45:34;;;;;;;15.32;13.80;;;18.90;99.90;;;;;;4974052;28;20163;-73
2023/08/29 07:48:00;;;;;;;16.05;14.48;;;18.90;99.90;;;;;;4965478;28;20046;-74
2023/08/29 07:50:26;;;;;;;14.55;13.05;;;18.90;99.90;;;;;;4970963;28;20039;-74
2023/08/29 07:52:52;;;;;;;14.52;12.55;;;18.90;99.90;;;;;;4966538;28;20029;-73
2023/08/29 07:55:18;;;;;;;14.30;12.57;;;18.90;99.90;;;;;;4970705;28;20388;-73
2023/08/29 07:57:43;;;;;;;12.38;10.20;;;19.00;99.90;;;;;;4951076;28;20420;-71
2023/08/29 08:00:11;;;;;;;12.20;10.85;;;19.00;99.90;;;;;;4973748;28;20101;-72
2023/08/29 08:02:38;;;;;;;12.80;10.60;;;19.00;99.90;;;;;;4972162;28;20015;-71
2023/08/29 08:05:15;;;;;;;11.00;9.85;;;19.00;99.90;;;;;;4971821;28;20073;-72
2023/08/29 08:07:42;;;;;;;13.07;11.30;;;19.10;99.90;;;;;;4973165;28;20504;-72
2023/08/29 08:10:10;;;;;;;12.27;10.95;;;19.10;99.90;;;;;;4972458;28;20089;-72
2023/08/29 08:12:37;;;;;;;13.40;10.15;;;19.10;99.90;;;;;;4971474;28;20023;-71
2023/08/29 08:15:04;;;;;;;12.07;10.43;;;19.20;99.90;;;;;;4969956;28;20085;-71
2023/08/29 08:17:31;;;;;;;12.38;11.15;;;19.20;99.90;;;;;;4975687;28;20054;-72
2023/08/29 08:19:57;;;;;;;15.75;9.90;;;19.20;99.90;;;;;;4991527;28;20068;-72
2023/08/29 08:22:23;;;;;;;9.88;8.90;;;19.30;99.90;;;;;;4989273;28;20484;-73
2023/08/29 08:24:49;;;;;;;9.95;8.13;;;19.20;99.90;;;;;;4992515;28;20034;-74
2023/08/29 08:27:16;;;;;;;8.73;7.50;;;19.30;99.90;;;;;;4992250;28;20041;-73
2023/08/29 08:29:42;;;;;;;8.50;7.18;;;19.30;99.90;;;;;;4990659;28;20034;-77
2023/08/29 08:32:08;;;;;;;9.10;6.95;;;19.30;99.90;;;;;;4988413;28;20033;-73
2023/08/29 08:34:34;;;;;;;10.68;7.18;;;19.40;99.90;;;;;;4991350;28;20046;-72
2023/08/29 08:36:59;;;;;;;7.97;6.93;;;19.50;99.90;;;;;;4988725;28;20073;-71
2023/08/29 08:39:25;;;;;;;8.65;6.53;;;19.50;99.90;;;;;;4987460;28;20038;-71
2023/08/29 08:41:52;;;;;;;8.20;6.50;;;19.50;99.90;;;;;;4993757;28;20142;-71
2023/08/29 08:44:21;;;;;;;8.27;6.53;;;19.50;99.90;;;;;;4991762;28;20018;-71
2023/08/29 08:46:47;;;;;;;10.35;7.43;;;19.60;99.90;;;;;;4992955;28;20037;-71
2023/08/29 08:49:13;;;;;;;8.88;5.85;;;19.60;99.90;;;;;;4991319;28;20346;-72
2023/08/29 08:51:40;;;;;;;7.53;6.30;;;19.60;99.90;;;;;;4989207;28;20022;-71
2023/08/29 08:54:07;;;;;;;9.77;7.75;;;19.70;99.90;;;;;;4992547;28;20088;-71
2023/08/29 08:56:33;;;;;;;8.00;6.57;;;19.70;99.90;;;;;;4992986;28;20428;-72
2023/08/29 08:58:59;;;;;;;9.63;7.70;;;19.70;99.90;;;;;;4991267;28;20026;-72
2023/08/29 09:01:26;;;;;;;10.43;7.13;;;19.80;99.90;;;;;;4989180;28;20045;-72
2023/08/29 09:03:52;;;;;;;10.57;7.75;;;19.70;99.90;;;;;;4994681;28;20029;-72
2023/08/29 09:06:17;;;;;;;12.82;8.60;;;19.80;99.90;;;;;;4990983;28;20034;-72
2023/08/29 09:08:43;;;;;;;9.32;6.22;;;19.80;99.90;;;;;;4989859;28;20023;-72
2023/08/29 09:11:09;;;;;;;7.78;4.30;;;19.80;99.90;;;;;;4991232;28;20472;-72
2023/08/29 09:13:34;;;;;;;4.07;3.30;;;19.90;99.90;;;;;;4990088;28;20037;-72
2023/08/29 09:16:01;;;;;;;5.57;3.22;;;19.90;99.90;;;;;;4988075;28;20030;-72
2023/08/29 09:18:31;;;;;;;4.10;2.35;;;19.90;99.90;;;;;;4988391;28;20030;-72
2023/08/29 09:21:00;;;;;;;3.88;2.60;;;19.90;99.90;;;;;;4988964;28;20022;-72
2023/08/29 09:23:28;;;;;;;3.45;2.28;;;20.00;99.90;;;;;;4991836;28;20066;-72
2023/08/29 09:25:59;;;;;;;4.78;2.58;;;20.00;99.90;;;;;;4990483;28;20069;-71
2023/08/29 09:28:31;;;;;;;4.60;2.65;;;20.00;99.90;;;;;;4992400;28;20483;-72
2023/08/29 09:31:10;;;;;;;;;;;20.00;99.90;;;;;;4988101;28;20037;-72
2023/08/29 09:33:38;;;;;;;4.20;3.80;;;20.00;99.90;;;;;;4986152;28;19914;-71
2023/08/29 09:36:07;;;;;;;5.22;4.75;;;20.10;99.90;;;;;;4992403;28;20019;-72
2023/08/29 09:38:34;;;;;;;3.92;3.20;;;20.10;99.90;;;;;;4992072;28;20132;-71
2023/08/29 09:41:00;;;;;;;5.72;4.47;;;20.10;99.90;;;;;;4993650;28;20093;-72
2023/08/29 09:43:28;;;;;;;4.57;3.72;;;20.10;99.90;;;;;;4988368;28;20058;-72
2023/08/29 09:46:29;;;;;;;4.15;3.65;;;20.10;99.90;;;;;;4993440;28;20100;-72
2023/08/29 09:48:56;;;;;;;2.75;2.53;;;20.20;99.90;;;;;;4982072;28;20117;-72
2023/08/29 09:51:23;;;;;;;5.60;3.20;;;20.20;99.90;;;;;;4997283;28;20030;-73
2023/08/29 09:53:50;;;;;;;5.70;2.67;;;20.20;99.90;;;;;;4993343;28;20025;-73
2023/08/29 09:56:19;;;;;;;3.30;2.30;;;20.20;99.90;;;;;;4993938;28;20245;-73
2023/08/29 09:58:47;;;;;;;5.40;1.73;;;20.20;99.90;;;;;;4993989;28;20027;-73
2023/08/29 10:01:14;;;;;;;2.55;2.25;;;20.30;99.90;;;;;;4992987;28;20059;-75
2023/08/29 10:03:42;;;;;;;2.67;2.08;;;20.20;99.90;;;;;;4994576;28;20047;-74
2023/08/29 10:06:14;;;;;;;3.03;2.67;;;20.30;99.60;;;;;;4990505;28;20049;-72
2023/08/29 10:08:51;;;;;;;4.80;2.90;;;20.30;99.40;;;;;;4994250;28;20535;-73
2023/08/29 10:11:19;;;;;;;6.50;2.97;;;20.30;99.30;;;;;;4994862;28;20030;-72
2023/08/29 10:13:46;;;;;;;5.32;2.08;;;20.40;99.40;;;;;;4993410;28;20088;-72
2023/08/29 10:16:14;;;;;;;3.15;2.58;;;20.40;99.70;;;;;;4993285;28;20034;-72
2023/08/29 10:18:41;;;;;;;3.53;1.92;;;20.40;99.70;;;;;;4983304;28;20023;-72
2023/08/29 10:21:07;;;;;;;3.72;2.65;;;20.40;99.90;;;;;;4956853;28;20058;-72
2023/08/29 10:23:35;;;;;;;5.97;4.28;;;20.40;99.80;;;;;;4972457;28;20023;-72
2023/08/29 10:26:02;;;;;;;8.40;5.20;;;20.40;99.70;;;;;;4971680;28;20046;-72
2023/08/29 10:28:29;;;;;;;5.13;3.45;;;20.40;99.50;;;;;;4975253;28;20023;-72
2023/08/29 10:30:59;;;;;;;6.03;2.55;;;20.40;99.40;;;;;;4974525;28;20062;-72
2023/08/29 10:33:25;;;;;;;6.13;3.05;;;20.50;99.60;;;;;;4969361;28;20050;-72
2023/08/29 10:35:50;;;;;;;4.95;2.97;;;20.50;99.70;;;;;;4974360;28;20027;-72
2023/08/29 10:38:17;;;;;;;4.05;2.72;;;20.50;99.70;;;;;;4980551;28;20031;-72
2023/08/29 10:40:44;;;;;;;8.32;4.97;;;20.50;99.60;;;;;;4988660;28;20026;-72
2023/08/29 10:43:41;;;;;;;12.93;4.43;;;20.60;99.60;;;;;;4972627;28;20027;-71
2023/08/29 10:46:10;;;;;;;6.20;2.88;;;20.60;99.50;;;;;;4970028;28;20136;-72
2023/08/29 10:48:42;;;;;;;3.55;1.73;;;20.60;99.70;;;;;;4970354;28;20031;-73
2023/08/29 10:51:08;;;;;;;4.32;3.35;;;20.70;99.80;;;;;;4975711;28;20488;-71
2023/08/29 10:53:45;;;;;;;5.30;4.00;;;20.70;99.70;;;;;;4973324;28;20034;-71
2023/08/29 10:56:13;;;;;;;5.20;4.28;;;20.70;99.50;;;;;;4958580;28;20051;-71
2023/08/29 10:58:42;;;;;;;5.15;3.60;;;20.70;99.00;;;;;;4970277;28;20031;-70
2023/08/29 11:01:28;;;;;;;6.55;2.97;;;20.70;99.00;;;;;;4974018;28;20380;-70
2023/08/29 11:04:03;;;;;;;2.17;1.38;;;20.70;98.90;;;;;;4954439;28;20492;-70
2023/08/29 11:07:05;;;;;;;6.50;2.05;;;20.80;99.20;;;;;;4973322;28;20100;-71
2023/08/29 11:09:30;;;;;;;6.28;2.10;;;20.80;99.10;;;;;;4933918;29;20575;-70
2023/08/29 11:12:10;;;;;;;2.88;1.48;;;20.90;98.80;;;;;;4961245;28;20114;-70
2023/08/29 11:14:50;;;;;;;5.03;1.90;;;20.90;98.60;;;;;;4968815;28;20027;-70
2023/08/29 11:17:22;;;;;;;3.95;1.77;;;20.90;98.40;;;;;;4970755;28;20142;-70
2023/08/29 11:19:53;;;;;;;3.50;1.55;;;20.90;98.10;;;;;;4991406;28;20026;-71
2023/08/29 11:22:22;;;;;;;4.47;1.95;;;20.90;98.00;;;;;;4992371;28;20030;-71
2023/08/29 11:24:55;;;;;;;6.75;2.00;;;21.00;97.30;;;;;;4993321;28;20030;-70
2023/08/29 11:27:23;;;;;;;4.45;2.28;;;20.90;96.70;;;;;;4994361;28;20026;-70
2023/08/29 11:29:49;;;;;;;7.53;2.30;;;21.00;96.90;;;;;;4993981;28;20044;-71
2023/08/29 11:32:21;;;;;;;7.10;2.67;;;21.00;97.20;;;;;;4993229;28;20034;-71
2023/08/29 11:34:54;;;;;;;7.50;2.42;;;21.00;97.60;;;;;;4999243;28;20021;-70
2023/08/29 11:37:21;;;;;;;4.75;2.15;;;21.00;97.90;;;;;;4958153;28;20399;-72
2023/08/29 11:40:01;;;;;;;7.28;2.88;;;21.10;98.40;;;;;;4983209;28;20026;-70
2023/08/29 11:42:30;;;;;;;5.20;2.72;;;21.00;98.20;;;;;;4988012;28;20030;-70
2023/08/29 11:45:08;;;;;;;8.98;3.50;;;21.00;98.00;;;;;;4992779;28;20038;-72
2023/08/29 11:47:44;;;;;;;4.85;3.05;;;21.10;97.60;;;;;;4985293;28;20431;-72
2023/08/29 11:50:39;;;;;;;5.65;3.55;;;21.10;97.70;;;;;;4982312;28;20147;-73
2023/08/29 11:53:20;;;;;;;7.55;3.53;;;21.10;97.80;;;;;;4990978;28;20088;-71
2023/08/29 11:55:46;;;;;;;6.72;3.53;;;21.10;97.80;;;;;;4992742;28;20022;-71
2023/08/29 11:58:12;;;;;;;4.85;2.05;;;21.10;97.90;;;;;;4995375;28;20093;-71
2023/08/29 12:00:38;;;;;;;6.10;3.58;;;21.10;98.00;;;;;;4991821;28;20018;-71
2023/08/29 12:03:03;;;;;;;6.60;3.85;;;21.10;98.00;;;;;;4997908;28;20028;-70
2023/08/29 12:05:31;;;;;;;7.75;4.30;;;21.10;98.00;;;;;;4991587;28;20154;-70
2023/08/29 12:07:56;;;;;;;9.30;4.05;;;21.10;98.00;;;;;;4999914;28;20111;-70
2023/08/29 12:10:23;;;;;;;10.63;4.00;;;21.10;98.00;;;;;;4992342;28;20428;-71
2023/08/29 12:12:48;;;;;;;12.88;3.90;;;21.10;98.10;;;;;;4992547;28;20023;-71
2023/08/29 12:15:15;;;;;;;7.40;3.22;;;21.10;98.20;;;;;;4992020;28;20062;-71
2023/08/29 12:17:42;;;;;;;5.90;3.13;;;21.10;98.20;;;;;;4992659;28;20022;-72
2023/08/29 12:20:15;;;;;;;5.18;2.55;;;21.10;98.00;;;;;;4992142;28;20057;-71
2023/08/29 12:22:47;;;;;;;5.55;2.30;;;21.20;98.00;;;;;;4996405;28;20029;-72
2023/08/29 12:25:13;;;;;;;;;;;21.10;98.00;;;;;;4988750;28;20027;-71
2023/08/29 12:27:44;;;;;;;6.43;2.67;;;21.10;97.90;;;;;;4991606;28;19997;-71
2023/08/29 12:30:14;;;;;;;5.53;2.65;;;21.20;97.70;;;;;;4992689;28;20042;-71
2023/08/29 12:32:42;;;;;;;7.03;2.28;;;21.10;97.40;;;;;;4992229;28;20080;-71
2023/08/29 12:35:08;;;;;;;6.28;2.70;;;21.10;97.20;;;;;;4988762;28;20054;-71
2023/08/29 12:37:34;;;;;;;4.13;2.30;;;21.20;97.00;;;;;;4989866;28;20077;-72
2023/08/29 12:40:04;;;;;;;15.60;3.15;;;21.20;97.10;;;;;;4991392;28;20030;-71
2023/08/29 12:42:30;;;;;;;4.72;2.38;;;21.20;97.10;;;;;;4989518;28;20027;-72